sensor_id;sensor_type;location;lat;lon;timestamp;P1;durP1;ratioP1;P2;durP2;ratioP2
57023;SDS011;42916;54.346;18.562;2022-07-29T00:00:09;10.70;;;4.70;;
57023;SDS011;42916;54.346;18.562;2022-07-29T00:02:55;9.50;;;4.20;;
57023;SDS011;42916;54.346;18.562;2022-07-29T00:05:21;13.20;;;4.40;;
57023;SDS011;42916;54.346;18.562;2022-07-29T00:07:47;12.10;;;4.40;;
57023;SDS011;42916;54.346;18.562;2022-07-29T00:10:13;9.50;;;4.20;;
57023;SDS011;42916;54.346;18.562;2022-07-29T00:12:39;8.10;;;4.50;;
57023;SDS011;42916;54.346;18.562;2022-07-29T00:15:05;7.50;;;4.10;;
57023;SDS011;42916;54.346;18.562;2022-07-29T00:17:31;8.40;;;4.30;;
57023;SDS011;42916;54.346;18.562;2022-07-29T00:19:57;8.10;;;4.30;;
57023;SDS011;42916;54.346;18.562;2022-07-29T00:22:23;6.10;;;3.90;;
57023;SDS011;42916;54.346;18.562;2022-07-29T00:24:49;6.60;;;4.20;;
57023;SDS011;42916;54.346;18.562;2022-07-29T00:27:15;10.00;;;4.50;;
57023;SDS011;42916;54.346;18.562;2022-07-29T00:29:42;8.90;;;4.60;;
57023;SDS011;42916;54.346;18.562;2022-07-29T00:32:08;9.30;;;5.10;;
57023;SDS011;42916;54.346;18.562;2022-07-29T00:34:34;11.80;;;4.90;;
57023;SDS011;42916;54.346;18.562;2022-07-29T00:37:18;10.60;;;4.80;;
57023;SDS011;42916;54.346;18.562;2022-07-29T00:39:44;11.70;;;5.10;;
57023;SDS011;42916;54.346;18.562;2022-07-29T00:42:10;12.30;;;4.60;;
57023;SDS011;42916;54.346;18.562;2022-07-29T00:44:37;9.20;;;4.20;;
57023;SDS011;42916;54.346;18.562;2022-07-29T00:47:04;12.90;;;5.30;;
57023;SDS011;42916;54.346;18.562;2022-07-29T00:49:30;11.70;;;5.00;;
57023;SDS011;42916;54.346;18.562;2022-07-29T00:51:56;11.70;;;4.50;;
57023;SDS011;42916;54.346;18.562;2022-07-29T00:54:23;12.10;;;4.90;;
57023;SDS011;42916;54.346;18.562;2022-07-29T00:56:49;12.20;;;4.50;;
57023;SDS011;42916;54.346;18.562;2022-07-29T00:59:15;9.40;;;4.20;;
57023;SDS011;42916;54.346;18.562;2022-07-29T01:01:41;13.40;;;4.30;;
57023;SDS011;42916;54.346;18.562;2022-07-29T01:04:07;7.60;;;4.20;;
57023;SDS011;42916;54.346;18.562;2022-07-29T01:06:33;6.40;;;4.30;;
57023;SDS011;42916;54.346;18.562;2022-07-29T01:09:00;8.20;;;3.90;;
57023;SDS011;42916;54.346;18.562;2022-07-29T01:11:27;10.20;;;4.20;;
57023;SDS011;42916;54.346;18.562;2022-07-29T01:13:53;11.40;;;4.60;;
57023;SDS011;42916;54.346;18.562;2022-07-29T01:16:28;8.40;;;4.10;;
57023;SDS011;42916;54.346;18.562;2022-07-29T01:19:00;10.70;;;4.20;;
57023;SDS011;42916;54.346;18.562;2022-07-29T01:21:50;8.10;;;4.50;;
57023;SDS011;42916;54.346;18.562;2022-07-29T01:29:57;7.50;;;4.10;;
57023;SDS011;42916;54.346;18.562;2022-07-29T01:32:29;5.80;;;4.00;;
57023;SDS011;42916;54.346;18.562;2022-07-29T01:35:01;6.20;;;3.90;;
57023;SDS011;42916;54.346;18.562;2022-07-29T01:38:15;8.70;;;4.20;;
57023;SDS011;42916;54.346;18.562;2022-07-29T01:40:41;7.80;;;4.60;;
57023;SDS011;42916;54.346;18.562;2022-07-29T01:43:14;8.50;;;4.50;;
57023;SDS011;42916;54.346;18.562;2022-07-29T01:45:45;8.50;;;5.00;;
57023;SDS011;42916;54.346;18.562;2022-07-29T01:48:18;9.50;;;5.10;;
57023;SDS011;42916;54.346;18.562;2022-07-29T01:50:53;12.80;;;5.40;;
57023;SDS011;42916;54.346;18.562;2022-07-29T01:53:25;11.50;;;5.10;;
57023;SDS011;42916;54.346;18.562;2022-07-29T01:55:56;7.20;;;4.60;;
57023;SDS011;42916;54.346;18.562;2022-07-29T01:58:25;10.40;;;4.70;;
57023;SDS011;42916;54.346;18.562;2022-07-29T02:00:54;6.50;;;4.60;;
57023;SDS011;42916;54.346;18.562;2022-07-29T02:03:22;8.20;;;4.60;;
57023;SDS011;42916;54.346;18.562;2022-07-29T02:05:49;8.90;;;4.90;;
57023;SDS011;42916;54.346;18.562;2022-07-29T02:08:18;9.40;;;5.60;;
57023;SDS011;42916;54.346;18.562;2022-07-29T02:10:45;7.50;;;4.60;;
57023;SDS011;42916;54.346;18.562;2022-07-29T02:13:12;11.00;;;5.30;;
57023;SDS011;42916;54.346;18.562;2022-07-29T02:15:40;8.20;;;5.00;;
57023;SDS011;42916;54.346;18.562;2022-07-29T02:18:09;13.00;;;5.90;;
57023;SDS011;42916;54.346;18.562;2022-07-29T02:20:39;8.60;;;5.20;;
57023;SDS011;42916;54.346;18.562;2022-07-29T02:23:10;11.90;;;5.40;;
57023;SDS011;42916;54.346;18.562;2022-07-29T02:25:38;8.40;;;5.30;;
57023;SDS011;42916;54.346;18.562;2022-07-29T02:28:07;9.60;;;5.50;;
57023;SDS011;42916;54.346;18.562;2022-07-29T02:30:35;11.00;;;5.40;;
57023;SDS011;42916;54.346;18.562;2022-07-29T02:33:04;8.70;;;5.30;;
57023;SDS011;42916;54.346;18.562;2022-07-29T02:35:31;9.70;;;5.30;;
57023;SDS011;42916;54.346;18.562;2022-07-29T02:37:58;9.10;;;5.40;;
57023;SDS011;42916;54.346;18.562;2022-07-29T02:40:43;6.70;;;4.90;;
57023;SDS011;42916;54.346;18.562;2022-07-29T02:43:09;10.30;;;5.40;;
57023;SDS011;42916;54.346;18.562;2022-07-29T02:45:36;9.40;;;5.30;;
57023;SDS011;42916;54.346;18.562;2022-07-29T02:48:06;7.00;;;4.80;;
57023;SDS011;42916;54.346;18.562;2022-07-29T02:50:40;7.00;;;4.60;;
57023;SDS011;42916;54.346;18.562;2022-07-29T02:53:15;7.10;;;4.90;;
57023;SDS011;42916;54.346;18.562;2022-07-29T02:55:57;9.20;;;5.40;;
57023;SDS011;42916;54.346;18.562;2022-07-29T02:58:28;8.80;;;5.40;;
57023;SDS011;42916;54.346;18.562;2022-07-29T03:00:55;7.80;;;5.20;;
57023;SDS011;42916;54.346;18.562;2022-07-29T03:03:25;9.50;;;5.70;;
57023;SDS011;42916;54.346;18.562;2022-07-29T03:05:54;11.80;;;5.30;;
57023;SDS011;42916;54.346;18.562;2022-07-29T03:08:22;9.70;;;5.00;;
57023;SDS011;42916;54.346;18.562;2022-07-29T03:10:50;10.80;;;5.10;;
57023;SDS011;42916;54.346;18.562;2022-07-29T03:13:17;8.90;;;4.80;;
57023;SDS011;42916;54.346;18.562;2022-07-29T03:15:44;9.00;;;4.90;;
57023;SDS011;42916;54.346;18.562;2022-07-29T03:18:11;9.20;;;5.20;;
57023;SDS011;42916;54.346;18.562;2022-07-29T03:20:38;10.10;;;5.10;;
57023;SDS011;42916;54.346;18.562;2022-07-29T03:23:06;8.90;;;5.30;;
57023;SDS011;42916;54.346;18.562;2022-07-29T03:25:32;7.80;;;5.50;;
57023;SDS011;42916;54.346;18.562;2022-07-29T03:27:58;8.10;;;5.00;;
57023;SDS011;42916;54.346;18.562;2022-07-29T03:30:25;7.80;;;4.70;;
57023;SDS011;42916;54.346;18.562;2022-07-29T03:32:51;11.10;;;5.50;;
57023;SDS011;42916;54.346;18.562;2022-07-29T03:35:20;9.40;;;4.70;;
57023;SDS011;42916;54.346;18.562;2022-07-29T03:37:47;10.10;;;5.60;;
57023;SDS011;42916;54.346;18.562;2022-07-29T03:40:15;10.00;;;5.20;;
57023;SDS011;42916;54.346;18.562;2022-07-29T03:42:45;10.20;;;5.70;;
57023;SDS011;42916;54.346;18.562;2022-07-29T03:45:15;8.30;;;5.00;;
57023;SDS011;42916;54.346;18.562;2022-07-29T03:47:48;9.10;;;5.10;;
57023;SDS011;42916;54.346;18.562;2022-07-29T03:50:17;11.30;;;5.70;;
57023;SDS011;42916;54.346;18.562;2022-07-29T03:52:46;12.80;;;5.60;;
57023;SDS011;42916;54.346;18.562;2022-07-29T03:55:13;8.30;;;5.20;;
57023;SDS011;42916;54.346;18.562;2022-07-29T03:57:40;13.40;;;5.20;;
57023;SDS011;42916;54.346;18.562;2022-07-29T04:00:08;9.40;;;5.40;;
57023;SDS011;42916;54.346;18.562;2022-07-29T04:02:35;8.70;;;5.00;;
57023;SDS011;42916;54.346;18.562;2022-07-29T04:05:02;10.30;;;5.60;;
57023;SDS011;42916;54.346;18.562;2022-07-29T04:07:28;9.90;;;5.40;;
57023;SDS011;42916;54.346;18.562;2022-07-29T04:09:55;10.60;;;6.00;;
57023;SDS011;42916;54.346;18.562;2022-07-29T04:12:21;11.50;;;6.90;;
57023;SDS011;42916;54.346;18.562;2022-07-29T04:14:47;10.90;;;6.60;;
57023;SDS011;42916;54.346;18.562;2022-07-29T04:17:13;16.20;;;6.70;;
57023;SDS011;42916;54.346;18.562;2022-07-29T04:19:38;11.30;;;5.90;;
57023;SDS011;42916;54.346;18.562;2022-07-29T04:22:04;9.60;;;5.80;;
57023;SDS011;42916;54.346;18.562;2022-07-29T04:24:31;11.80;;;5.40;;
57023;SDS011;42916;54.346;18.562;2022-07-29T04:26:57;10.30;;;5.40;;
57023;SDS011;42916;54.346;18.562;2022-07-29T04:29:24;11.70;;;5.70;;
57023;SDS011;42916;54.346;18.562;2022-07-29T04:31:50;9.80;;;5.90;;
57023;SDS011;42916;54.346;18.562;2022-07-29T04:34:15;10.20;;;5.60;;
57023;SDS011;42916;54.346;18.562;2022-07-29T04:36:41;8.40;;;5.40;;
57023;SDS011;42916;54.346;18.562;2022-07-29T04:39:07;9.10;;;5.80;;
57023;SDS011;42916;54.346;18.562;2022-07-29T04:41:33;8.80;;;5.00;;
57023;SDS011;42916;54.346;18.562;2022-07-29T04:43:59;10.40;;;4.60;;
57023;SDS011;42916;54.346;18.562;2022-07-29T04:46:30;12.40;;;6.10;;
57023;SDS011;42916;54.346;18.562;2022-07-29T04:48:57;10.00;;;5.10;;
57023;SDS011;42916;54.346;18.562;2022-07-29T04:51:23;7.80;;;4.20;;
57023;SDS011;42916;54.346;18.562;2022-07-29T04:53:49;6.80;;;4.30;;
57023;SDS011;42916;54.346;18.562;2022-07-29T04:56:15;5.80;;;3.60;;
57023;SDS011;42916;54.346;18.562;2022-07-29T04:58:41;5.40;;;2.60;;
57023;SDS011;42916;54.346;18.562;2022-07-29T05:01:07;4.10;;;2.30;;
57023;SDS011;42916;54.346;18.562;2022-07-29T05:03:33;4.00;;;1.70;;
57023;SDS011;42916;54.346;18.562;2022-07-29T05:05:59;2.90;;;1.70;;
57023;SDS011;42916;54.346;18.562;2022-07-29T05:08:25;2.70;;;1.50;;
57023;SDS011;42916;54.346;18.562;2022-07-29T05:10:51;4.50;;;1.80;;
57023;SDS011;42916;54.346;18.562;2022-07-29T05:13:17;5.60;;;1.50;;
57023;SDS011;42916;54.346;18.562;2022-07-29T05:15:43;3.20;;;1.80;;
57023;SDS011;42916;54.346;18.562;2022-07-29T05:18:09;2.50;;;1.70;;
57023;SDS011;42916;54.346;18.562;2022-07-29T05:20:35;3.30;;;1.50;;
57023;SDS011;42916;54.346;18.562;2022-07-29T05:23:01;4.70;;;1.50;;
57023;SDS011;42916;54.346;18.562;2022-07-29T05:25:28;3.00;;;1.20;;
57023;SDS011;42916;54.346;18.562;2022-07-29T05:27:55;3.30;;;1.30;;
57023;SDS011;42916;54.346;18.562;2022-07-29T05:30:21;1.80;;;1.10;;
57023;SDS011;42916;54.346;18.562;2022-07-29T05:32:47;3.70;;;1.20;;
57023;SDS011;42916;54.346;18.562;2022-07-29T05:35:13;8.40;;;1.50;;
57023;SDS011;42916;54.346;18.562;2022-07-29T05:37:40;2.70;;;1.30;;
57023;SDS011;42916;54.346;18.562;2022-07-29T05:40:07;2.90;;;1.50;;
57023;SDS011;42916;54.346;18.562;2022-07-29T05:42:34;1.30;;;1.00;;
57023;SDS011;42916;54.346;18.562;2022-07-29T05:45:01;3.00;;;1.10;;
57023;SDS011;42916;54.346;18.562;2022-07-29T05:47:27;7.70;;;1.60;;
57023;SDS011;42916;54.346;18.562;2022-07-29T05:49:53;5.90;;;1.60;;
57023;SDS011;42916;54.346;18.562;2022-07-29T05:52:19;4.70;;;1.00;;
57023;SDS011;42916;54.346;18.562;2022-07-29T05:54:46;2.70;;;0.80;;
57023;SDS011;42916;54.346;18.562;2022-07-29T05:57:18;3.40;;;0.60;;
57023;SDS011;42916;54.346;18.562;2022-07-29T05:59:45;3.50;;;1.00;;
57023;SDS011;42916;54.346;18.562;2022-07-29T06:02:12;5.80;;;2.00;;
57023;SDS011;42916;54.346;18.562;2022-07-29T06:04:38;3.90;;;1.10;;
57023;SDS011;42916;54.346;18.562;2022-07-29T06:07:04;2.60;;;1.00;;
57023;SDS011;42916;54.346;18.562;2022-07-29T06:09:30;2.20;;;1.00;;
57023;SDS011;42916;54.346;18.562;2022-07-29T06:11:57;5.40;;;1.10;;
57023;SDS011;42916;54.346;18.562;2022-07-29T06:14:24;4.00;;;1.00;;
57023;SDS011;42916;54.346;18.562;2022-07-29T06:16:50;4.50;;;0.90;;
57023;SDS011;42916;54.346;18.562;2022-07-29T06:19:16;4.10;;;1.70;;
57023;SDS011;42916;54.346;18.562;2022-07-29T06:21:42;3.80;;;1.10;;
57023;SDS011;42916;54.346;18.562;2022-07-29T06:24:12;1.80;;;0.80;;
57023;SDS011;42916;54.346;18.562;2022-07-29T06:26:40;2.50;;;0.90;;
57023;SDS011;42916;54.346;18.562;2022-07-29T06:29:07;3.90;;;1.10;;
57023;SDS011;42916;54.346;18.562;2022-07-29T06:31:34;2.70;;;0.90;;
57023;SDS011;42916;54.346;18.562;2022-07-29T06:33:59;1.20;;;0.70;;
57023;SDS011;42916;54.346;18.562;2022-07-29T06:36:25;1.60;;;0.60;;
57023;SDS011;42916;54.346;18.562;2022-07-29T06:38:51;4.40;;;1.00;;
57023;SDS011;42916;54.346;18.562;2022-07-29T06:41:17;3.30;;;0.60;;
57023;SDS011;42916;54.346;18.562;2022-07-29T06:43:44;2.70;;;0.80;;
57023;SDS011;42916;54.346;18.562;2022-07-29T06:46:12;1.90;;;0.60;;
57023;SDS011;42916;54.346;18.562;2022-07-29T06:48:40;1.20;;;0.70;;
57023;SDS011;42916;54.346;18.562;2022-07-29T06:51:07;1.40;;;0.70;;
57023;SDS011;42916;54.346;18.562;2022-07-29T06:53:34;1.40;;;0.90;;
57023;SDS011;42916;54.346;18.562;2022-07-29T06:56:02;1.20;;;0.70;;
57023;SDS011;42916;54.346;18.562;2022-07-29T06:58:29;3.00;;;0.80;;
57023;SDS011;42916;54.346;18.562;2022-07-29T07:00:57;4.20;;;0.90;;
57023;SDS011;42916;54.346;18.562;2022-07-29T07:03:24;1.80;;;0.50;;
57023;SDS011;42916;54.346;18.562;2022-07-29T07:05:51;2.10;;;0.70;;
57023;SDS011;42916;54.346;18.562;2022-07-29T07:08:19;2.00;;;0.70;;
57023;SDS011;42916;54.346;18.562;2022-07-29T07:10:46;1.50;;;0.60;;
57023;SDS011;42916;54.346;18.562;2022-07-29T07:13:12;0.80;;;0.50;;
57023;SDS011;42916;54.346;18.562;2022-07-29T07:15:38;1.70;;;0.80;;
57023;SDS011;42916;54.346;18.562;2022-07-29T07:18:05;2.40;;;0.60;;
57023;SDS011;42916;54.346;18.562;2022-07-29T07:20:32;3.70;;;0.90;;
57023;SDS011;42916;54.346;18.562;2022-07-29T07:22:58;1.00;;;0.60;;
57023;SDS011;42916;54.346;18.562;2022-07-29T07:25:24;1.00;;;0.60;;
57023;SDS011;42916;54.346;18.562;2022-07-29T07:27:51;3.30;;;0.90;;
57023;SDS011;42916;54.346;18.562;2022-07-29T07:30:17;3.00;;;0.60;;
57023;SDS011;42916;54.346;18.562;2022-07-29T07:32:43;2.80;;;0.60;;
57023;SDS011;42916;54.346;18.562;2022-07-29T07:35:09;1.10;;;0.70;;
57023;SDS011;42916;54.346;18.562;2022-07-29T07:37:35;2.30;;;0.50;;
57023;SDS011;42916;54.346;18.562;2022-07-29T07:40:02;1.40;;;0.60;;
57023;SDS011;42916;54.346;18.562;2022-07-29T07:42:30;1.90;;;0.60;;
57023;SDS011;42916;54.346;18.562;2022-07-29T07:44:56;3.80;;;0.60;;
57023;SDS011;42916;54.346;18.562;2022-07-29T07:47:22;3.00;;;0.60;;
57023;SDS011;42916;54.346;18.562;2022-07-29T07:49:49;2.20;;;0.50;;
57023;SDS011;42916;54.346;18.562;2022-07-29T07:52:16;4.80;;;0.60;;
57023;SDS011;42916;54.346;18.562;2022-07-29T07:54:43;1.10;;;0.40;;
57023;SDS011;42916;54.346;18.562;2022-07-29T07:57:10;2.10;;;0.50;;
57023;SDS011;42916;54.346;18.562;2022-07-29T07:59:37;2.00;;;0.50;;
57023;SDS011;42916;54.346;18.562;2022-07-29T08:02:04;1.70;;;0.60;;
57023;SDS011;42916;54.346;18.562;2022-07-29T08:04:31;2.20;;;0.50;;
57023;SDS011;42916;54.346;18.562;2022-07-29T08:06:57;1.10;;;0.60;;
57023;SDS011;42916;54.346;18.562;2022-07-29T08:09:24;1.60;;;0.60;;
57023;SDS011;42916;54.346;18.562;2022-07-29T08:11:51;0.80;;;0.40;;
57023;SDS011;42916;54.346;18.562;2022-07-29T08:14:18;1.20;;;0.40;;
57023;SDS011;42916;54.346;18.562;2022-07-29T08:16:45;1.20;;;0.50;;
57023;SDS011;42916;54.346;18.562;2022-07-29T08:19:11;1.00;;;0.40;;
57023;SDS011;42916;54.346;18.562;2022-07-29T08:21:37;1.70;;;0.50;;
57023;SDS011;42916;54.346;18.562;2022-07-29T08:24:03;1.40;;;0.50;;
57023;SDS011;42916;54.346;18.562;2022-07-29T08:26:48;3.10;;;0.90;;
57023;SDS011;42916;54.346;18.562;2022-07-29T08:29:14;2.10;;;0.40;;
57023;SDS011;42916;54.346;18.562;2022-07-29T08:31:41;2.60;;;0.50;;
57023;SDS011;42916;54.346;18.562;2022-07-29T08:34:08;1.70;;;0.80;;
57023;SDS011;42916;54.346;18.562;2022-07-29T08:36:34;3.00;;;0.80;;
57023;SDS011;42916;54.346;18.562;2022-07-29T08:39:01;1.60;;;0.50;;
57023;SDS011;42916;54.346;18.562;2022-07-29T08:41:28;0.90;;;0.50;;
57023;SDS011;42916;54.346;18.562;2022-07-29T08:43:55;3.00;;;0.60;;
57023;SDS011;42916;54.346;18.562;2022-07-29T08:46:21;2.30;;;0.60;;
57023;SDS011;42916;54.346;18.562;2022-07-29T08:48:48;0.50;;;0.40;;
57023;SDS011;42916;54.346;18.562;2022-07-29T08:51:15;4.70;;;0.60;;
57023;SDS011;42916;54.346;18.562;2022-07-29T08:53:48;1.90;;;0.50;;
57023;SDS011;42916;54.346;18.562;2022-07-29T08:56:16;1.70;;;0.50;;
57023;SDS011;42916;54.346;18.562;2022-07-29T08:58:43;1.70;;;0.50;;
57023;SDS011;42916;54.346;18.562;2022-07-29T09:01:12;2.50;;;0.60;;
57023;SDS011;42916;54.346;18.562;2022-07-29T09:03:41;0.70;;;0.30;;
57023;SDS011;42916;54.346;18.562;2022-07-29T09:06:12;1.10;;;0.50;;
57023;SDS011;42916;54.346;18.562;2022-07-29T09:08:40;4.10;;;0.50;;
57023;SDS011;42916;54.346;18.562;2022-07-29T09:11:07;1.50;;;0.70;;
57023;SDS011;42916;54.346;18.562;2022-07-29T09:13:33;0.60;;;0.50;;
57023;SDS011;42916;54.346;18.562;2022-07-29T09:16:00;3.00;;;0.50;;
57023;SDS011;42916;54.346;18.562;2022-07-29T09:18:39;2.10;;;0.40;;
57023;SDS011;42916;54.346;18.562;2022-07-29T09:21:08;2.70;;;0.60;;
57023;SDS011;42916;54.346;18.562;2022-07-29T09:26:35;1.20;;;0.50;;
57023;SDS011;42916;54.346;18.562;2022-07-29T09:31:43;4.00;;;0.70;;
57023;SDS011;42916;54.346;18.562;2022-07-29T09:34:10;2.60;;;0.50;;
57023;SDS011;42916;54.346;18.562;2022-07-29T09:36:41;2.10;;;0.70;;
57023;SDS011;42916;54.346;18.562;2022-07-29T09:39:09;3.30;;;0.60;;
57023;SDS011;42916;54.346;18.562;2022-07-29T09:41:52;1.60;;;0.70;;
57023;SDS011;42916;54.346;18.562;2022-07-29T09:44:20;1.90;;;0.70;;
57023;SDS011;42916;54.346;18.562;2022-07-29T09:47:00;5.10;;;0.80;;
57023;SDS011;42916;54.346;18.562;2022-07-29T09:49:34;4.40;;;0.80;;
57023;SDS011;42916;54.346;18.562;2022-07-29T09:52:05;2.10;;;0.80;;
57023;SDS011;42916;54.346;18.562;2022-07-29T09:54:33;2.60;;;0.80;;
57023;SDS011;42916;54.346;18.562;2022-07-29T09:57:03;1.30;;;0.70;;
57023;SDS011;42916;54.346;18.562;2022-07-29T09:59:31;1.70;;;0.70;;
57023;SDS011;42916;54.346;18.562;2022-07-29T10:01:58;2.90;;;0.70;;
57023;SDS011;42916;54.346;18.562;2022-07-29T10:04:36;2.50;;;0.80;;
57023;SDS011;42916;54.346;18.562;2022-07-29T10:07:04;1.80;;;0.70;;
57023;SDS011;42916;54.346;18.562;2022-07-29T10:09:31;3.40;;;0.80;;
57023;SDS011;42916;54.346;18.562;2022-07-29T10:12:09;3.90;;;0.80;;
57023;SDS011;42916;54.346;18.562;2022-07-29T10:14:39;1.20;;;0.80;;
57023;SDS011;42916;54.346;18.562;2022-07-29T10:17:06;0.90;;;0.60;;
57023;SDS011;42916;54.346;18.562;2022-07-29T10:19:33;1.90;;;0.70;;
57023;SDS011;42916;54.346;18.562;2022-07-29T10:22:01;3.50;;;0.80;;
57023;SDS011;42916;54.346;18.562;2022-07-29T10:26:56;3.10;;;0.80;;
57023;SDS011;42916;54.346;18.562;2022-07-29T10:29:24;2.20;;;0.80;;
57023;SDS011;42916;54.346;18.562;2022-07-29T10:32:12;0.90;;;0.50;;
57023;SDS011;42916;54.346;18.562;2022-07-29T10:37:52;4.70;;;0.80;;
57023;SDS011;42916;54.346;18.562;2022-07-29T10:40:36;3.50;;;0.70;;
57023;SDS011;42916;54.346;18.562;2022-07-29T10:43:35;1.90;;;0.70;;
57023;SDS011;42916;54.346;18.562;2022-07-29T10:46:06;1.40;;;0.60;;
57023;SDS011;42916;54.346;18.562;2022-07-29T10:48:33;3.50;;;0.60;;
57023;SDS011;42916;54.346;18.562;2022-07-29T10:51:00;1.20;;;0.60;;
57023;SDS011;42916;54.346;18.562;2022-07-29T10:56:27;1.90;;;0.50;;
57023;SDS011;42916;54.346;18.562;2022-07-29T11:01:46;1.60;;;0.50;;
57023;SDS011;42916;54.346;18.562;2022-07-29T11:04:16;2.80;;;0.50;;
57023;SDS011;42916;54.346;18.562;2022-07-29T11:07:11;1.10;;;0.60;;
57023;SDS011;42916;54.346;18.562;2022-07-29T11:09:41;0.90;;;0.50;;
57023;SDS011;42916;54.346;18.562;2022-07-29T11:15:02;3.60;;;0.50;;
57023;SDS011;42916;54.346;18.562;2022-07-29T11:23:29;3.80;;;0.50;;
57023;SDS011;42916;54.346;18.562;2022-07-29T11:28:35;2.10;;;0.40;;
57023;SDS011;42916;54.346;18.562;2022-07-29T11:31:05;2.20;;;0.40;;
57023;SDS011;42916;54.346;18.562;2022-07-29T11:33:35;1.50;;;0.60;;
57023;SDS011;42916;54.346;18.562;2022-07-29T11:38:37;1.20;;;0.40;;
57023;SDS011;42916;54.346;18.562;2022-07-29T11:43:48;2.00;;;0.50;;
57023;SDS011;42916;54.346;18.562;2022-07-29T11:49:12;1.00;;;0.50;;
57023;SDS011;42916;54.346;18.562;2022-07-29T11:51:38;2.80;;;0.60;;
57023;SDS011;42916;54.346;18.562;2022-07-29T11:54:05;2.30;;;0.40;;
57023;SDS011;42916;54.346;18.562;2022-07-29T11:56:31;0.40;;;0.30;;
57023;SDS011;42916;54.346;18.562;2022-07-29T11:59:02;1.00;;;0.50;;
57023;SDS011;42916;54.346;18.562;2022-07-29T12:01:34;2.50;;;0.50;;
57023;SDS011;42916;54.346;18.562;2022-07-29T12:04:04;4.10;;;0.40;;
57023;SDS011;42916;54.346;18.562;2022-07-29T12:06:35;1.80;;;0.30;;
57023;SDS011;42916;54.346;18.562;2022-07-29T12:09:06;2.90;;;0.60;;
57023;SDS011;42916;54.346;18.562;2022-07-29T12:11:33;3.50;;;0.60;;
57023;SDS011;42916;54.346;18.562;2022-07-29T12:13:59;2.40;;;0.70;;
57023;SDS011;42916;54.346;18.562;2022-07-29T12:16:35;6.20;;;0.60;;
57023;SDS011;42916;54.346;18.562;2022-07-29T12:19:03;4.00;;;0.60;;
57023;SDS011;42916;54.346;18.562;2022-07-29T12:21:49;2.80;;;0.40;;
57023;SDS011;42916;54.346;18.562;2022-07-29T12:24:16;3.50;;;0.40;;
57023;SDS011;42916;54.346;18.562;2022-07-29T12:29:16;1.40;;;0.50;;
57023;SDS011;42916;54.346;18.562;2022-07-29T12:31:43;0.70;;;0.30;;
57023;SDS011;42916;54.346;18.562;2022-07-29T12:34:10;2.00;;;0.60;;
57023;SDS011;42916;54.346;18.562;2022-07-29T12:36:37;2.20;;;0.50;;
57023;SDS011;42916;54.346;18.562;2022-07-29T12:39:03;2.90;;;0.60;;
57023;SDS011;42916;54.346;18.562;2022-07-29T12:41:30;3.70;;;0.50;;
57023;SDS011;42916;54.346;18.562;2022-07-29T12:43:56;0.70;;;0.50;;
57023;SDS011;42916;54.346;18.562;2022-07-29T12:46:22;1.60;;;0.40;;
57023;SDS011;42916;54.346;18.562;2022-07-29T12:48:51;2.70;;;0.50;;
57023;SDS011;42916;54.346;18.562;2022-07-29T12:51:30;3.40;;;0.70;;
57023;SDS011;42916;54.346;18.562;2022-07-29T12:56:37;3.10;;;0.40;;
57023;SDS011;42916;54.346;18.562;2022-07-29T12:59:11;0.80;;;0.50;;
57023;SDS011;42916;54.346;18.562;2022-07-29T13:01:45;1.30;;;0.60;;
57023;SDS011;42916;54.346;18.562;2022-07-29T13:07:04;3.80;;;0.60;;
57023;SDS011;42916;54.346;18.562;2022-07-29T13:09:36;1.70;;;0.50;;
57023;SDS011;42916;54.346;18.562;2022-07-29T13:12:10;2.20;;;0.80;;
57023;SDS011;42916;54.346;18.562;2022-07-29T13:14:42;1.10;;;0.40;;
57023;SDS011;42916;54.346;18.562;2022-07-29T13:17:11;2.20;;;0.50;;
57023;SDS011;42916;54.346;18.562;2022-07-29T13:19:45;1.10;;;0.40;;
57023;SDS011;42916;54.346;18.562;2022-07-29T13:22:14;2.30;;;0.60;;
57023;SDS011;42916;54.346;18.562;2022-07-29T13:24:53;1.30;;;0.50;;
57023;SDS011;42916;54.346;18.562;2022-07-29T13:29:48;2.30;;;0.40;;
57023;SDS011;42916;54.346;18.562;2022-07-29T13:32:16;1.30;;;0.60;;
57023;SDS011;42916;54.346;18.562;2022-07-29T13:34:42;2.70;;;0.70;;
57023;SDS011;42916;54.346;18.562;2022-07-29T13:37:09;0.80;;;0.40;;
57023;SDS011;42916;54.346;18.562;2022-07-29T13:39:35;1.00;;;0.50;;
57023;SDS011;42916;54.346;18.562;2022-07-29T13:42:01;2.50;;;0.60;;
57023;SDS011;42916;54.346;18.562;2022-07-29T13:44:27;0.60;;;0.60;;
57023;SDS011;42916;54.346;18.562;2022-07-29T13:46:53;3.90;;;0.60;;
57023;SDS011;42916;54.346;18.562;2022-07-29T13:49:19;2.10;;;0.80;;
57023;SDS011;42916;54.346;18.562;2022-07-29T13:51:45;1.30;;;0.60;;
57023;SDS011;42916;54.346;18.562;2022-07-29T13:54:11;1.50;;;0.80;;
57023;SDS011;42916;54.346;18.562;2022-07-29T13:56:37;2.80;;;0.70;;
57023;SDS011;42916;54.346;18.562;2022-07-29T13:59:03;1.50;;;0.50;;
57023;SDS011;42916;54.346;18.562;2022-07-29T14:01:29;1.30;;;0.60;;
57023;SDS011;42916;54.346;18.562;2022-07-29T14:03:56;5.20;;;0.60;;
57023;SDS011;42916;54.346;18.562;2022-07-29T14:06:22;2.60;;;0.80;;
57023;SDS011;42916;54.346;18.562;2022-07-29T14:08:48;1.10;;;0.50;;
57023;SDS011;42916;54.346;18.562;2022-07-29T14:11:14;0.80;;;0.50;;
57023;SDS011;42916;54.346;18.562;2022-07-29T14:13:40;0.90;;;0.50;;
57023;SDS011;42916;54.346;18.562;2022-07-29T14:16:05;0.50;;;0.30;;
57023;SDS011;42916;54.346;18.562;2022-07-29T14:18:33;2.10;;;0.60;;
57023;SDS011;42916;54.346;18.562;2022-07-29T14:20:59;1.00;;;0.60;;
57023;SDS011;42916;54.346;18.562;2022-07-29T14:23:25;0.90;;;0.60;;
57023;SDS011;42916;54.346;18.562;2022-07-29T14:25:52;0.90;;;0.50;;
57023;SDS011;42916;54.346;18.562;2022-07-29T14:28:36;3.20;;;0.60;;
57023;SDS011;42916;54.346;18.562;2022-07-29T14:31:03;2.80;;;0.70;;
57023;SDS011;42916;54.346;18.562;2022-07-29T14:33:29;0.90;;;0.30;;
57023;SDS011;42916;54.346;18.562;2022-07-29T14:35:54;2.20;;;0.40;;
57023;SDS011;42916;54.346;18.562;2022-07-29T14:38:20;1.90;;;0.50;;
57023;SDS011;42916;54.346;18.562;2022-07-29T14:40:46;2.70;;;0.60;;
57023;SDS011;42916;54.346;18.562;2022-07-29T14:43:13;2.00;;;0.50;;
57023;SDS011;42916;54.346;18.562;2022-07-29T14:45:39;2.30;;;0.40;;
57023;SDS011;42916;54.346;18.562;2022-07-29T14:48:06;1.20;;;0.50;;
57023;SDS011;42916;54.346;18.562;2022-07-29T14:50:32;1.00;;;0.50;;
57023;SDS011;42916;54.346;18.562;2022-07-29T14:53:02;1.10;;;0.50;;
57023;SDS011;42916;54.346;18.562;2022-07-29T14:55:28;0.60;;;0.40;;
57023;SDS011;42916;54.346;18.562;2022-07-29T14:57:54;0.50;;;0.30;;
57023;SDS011;42916;54.346;18.562;2022-07-29T15:00:21;1.90;;;0.40;;
57023;SDS011;42916;54.346;18.562;2022-07-29T15:02:47;0.50;;;0.30;;
57023;SDS011;42916;54.346;18.562;2022-07-29T15:05:14;1.50;;;0.50;;
57023;SDS011;42916;54.346;18.562;2022-07-29T15:07:40;0.40;;;0.30;;
57023;SDS011;42916;54.346;18.562;2022-07-29T15:10:06;1.50;;;0.40;;
57023;SDS011;42916;54.346;18.562;2022-07-29T15:12:32;0.80;;;0.30;;
57023;SDS011;42916;54.346;18.562;2022-07-29T15:14:58;0.50;;;0.40;;
57023;SDS011;42916;54.346;18.562;2022-07-29T15:17:24;1.90;;;0.60;;
57023;SDS011;42916;54.346;18.562;2022-07-29T15:19:51;0.60;;;0.30;;
57023;SDS011;42916;54.346;18.562;2022-07-29T15:22:17;0.50;;;0.30;;
57023;SDS011;42916;54.346;18.562;2022-07-29T15:24:43;0.90;;;0.40;;
57023;SDS011;42916;54.346;18.562;2022-07-29T15:27:09;0.60;;;0.40;;
57023;SDS011;42916;54.346;18.562;2022-07-29T15:29:40;0.60;;;0.20;;
57023;SDS011;42916;54.346;18.562;2022-07-29T15:32:07;1.20;;;0.40;;